Time;durP1;ratioP1;P1;durP2;ratioP2;P2;SDS_P1;SDS_P2;PMS_P1;PMS_P2;Temp;Humidity;BMP_temperature;BMP_pressure;BME280_temperature;BME280_humidity;BME280_pressure;Samples;Min_cycle;Max_cycle;Signal;HPM_P1;HPM_P2
2023/08/14 00:01:12;;;;;;;0.65;0.65;;;;;;;23.05;78.90;100558.44;5053818;28;20658;-71
2023/08/14 00:03:39;;;;;;;1.23;0.85;;;;;;;23.12;77.71;100557.34;5053895;28;20207;-71
2023/08/14 00:06:05;;;;;;;0.90;0.85;;;;;;;23.10;77.79;100551.25;5054204;28;20211;-71
2023/08/14 00:08:32;;;;;;;0.80;0.80;;;;;;;23.20;75.73;100547.41;5053939;28;20688;-71
2023/08/14 00:10:59;;;;;;;2.85;1.05;;;;;;;23.23;73.28;100552.63;5054325;28;20203;-72
2023/08/14 00:13:27;;;;;;;0.80;0.80;;;;;;;23.12;75.46;100562.63;5054112;28;20195;-71
2023/08/14 00:15:54;;;;;;;1.85;0.90;;;;;;;22.96;75.72;100545.50;5054208;28;20211;-71
2023/08/14 00:18:21;;;;;;;1.20;0.90;;;;;;;22.93;76.63;100550.88;5054185;28;20733;-71
2023/08/14 00:20:47;;;;;;;3.78;1.10;;;;;;;22.91;85.13;100542.09;5034038;28;20600;-71
2023/08/14 00:23:14;;;;;;;0.70;0.70;;;;;;;22.80;87.90;100533.59;5053649;28;20211;-71
2023/08/14 00:25:41;;;;;;;1.75;0.90;;;;;;;22.83;86.02;100530.84;5054142;28;20198;-71
2023/08/14 00:28:08;;;;;;;1.85;0.90;;;;;;;22.75;88.24;100532.88;5053775;28;20207;-71
2023/08/14 00:30:36;;;;;;;0.80;0.80;;;;;;;22.91;94.99;100528.88;5018569;28;20199;-71
2023/08/14 00:33:03;;;;;;;3.05;0.93;;;;;;;22.85;100.00;100533.47;5053899;28;20216;-71
2023/08/14 00:35:29;;;;;;;0.80;0.80;;;;;;;22.77;100.00;100530.16;5034827;28;20589;-71
2023/08/14 00:37:56;;;;;;;1.05;0.80;;;;;;;22.62;100.00;100524.34;5034811;28;20207;-71
2023/08/14 00:40:23;;;;;;;0.80;0.80;;;;;;;22.46;100.00;100509.81;5053368;28;20195;-71
2023/08/14 00:42:50;;;;;;;2.17;0.90;;;;;;;22.52;100.00;100525.50;5053539;28;20686;-71
2023/08/14 00:45:17;;;;;;;0.90;0.82;;;;;;;22.54;100.00;100528.13;5053303;28;20633;-71
2023/08/14 00:47:46;;;;;;;1.30;0.80;;;;;;;22.47;100.00;100505.41;5053473;28;20223;-71
2023/08/14 00:50:14;;;;;;;1.60;0.90;;;;;;;22.55;100.00;100521.91;5053224;28;20210;-71
2023/08/14 00:52:44;;;;;;;0.75;0.68;;;;;;;22.62;100.00;100518.19;5053459;28;20219;-71
2023/08/14 00:55:16;;;;;;;1.13;0.80;;;;;;;22.61;100.00;100513.84;5034648;28;20580;-71
2023/08/14 00:57:43;;;;;;;1.85;0.95;;;;;;;22.47;100.00;100503.63;5053536;28;20191;-71
2023/08/14 01:00:12;;;;;;;1.45;0.80;;;;;;;22.54;100.00;100522.84;5053023;28;20219;-71
2023/08/14 01:02:43;;;;;;;1.15;0.82;;;;;;;22.53;100.00;100521.09;5053317;28;20196;-71
2023/08/14 01:05:11;;;;;;;2.25;1.23;;;;;;;22.31;100.00;100496.13;5053344;28;20230;-71
2023/08/14 01:07:39;;;;;;;2.70;1.00;;;;;;;22.43;100.00;100527.53;5053040;28;20211;-71
2023/08/14 01:10:07;;;;;;;2.47;1.00;;;;;;;22.40;100.00;100530.28;5052626;28;20717;-71
2023/08/14 01:12:43;;;;;;;2.42;0.93;;;;;;;22.27;100.00;100507.69;5034471;28;20203;-71
2023/08/14 01:15:12;;;;;;;2.40;0.90;;;;;;;22.21;100.00;100528.09;5052882;28;20550;-71
2023/08/14 01:17:43;;;;;;;1.50;0.82;;;;;;;22.09;100.00;100514.31;5053035;28;20207;-71
2023/08/14 01:20:15;;;;;;;2.40;0.95;;;;;;;22.15;100.00;100520.31;5052540;28;20218;-71
2023/08/14 01:22:50;;;;;;;1.27;0.75;;;;;;;22.15;100.00;100525.59;5052776;28;20666;-71
2023/08/14 01:25:29;;;;;;;0.80;0.80;;;;;;;22.15;100.00;100530.88;5052591;28;20214;-71
2023/08/14 01:27:56;;;;;;;2.47;0.95;;;;;;;21.98;100.00;100522.50;5052775;28;20203;-71
2023/08/14 01:30:23;;;;;;;0.70;0.70;;;;;;;22.10;100.00;100538.06;5052545;28;20641;-71
2023/08/14 01:32:50;;;;;;;1.92;0.90;;;;;;;21.94;100.00;100525.28;5052624;28;20278;-71
2023/08/14 01:35:18;;;;;;;0.85;0.77;;;;;;;21.98;100.00;100538.34;5052097;28;20756;-71
2023/08/14 01:37:52;;;;;;;2.25;0.90;;;;;;;21.84;100.00;100507.88;5052391;28;20196;-71
2023/08/14 01:40:26;;;;;;;1.98;0.82;;;;;;;22.00;100.00;100551.53;5052254;28;20793;-71
2023/08/14 01:42:59;;;;;;;1.35;0.80;;;;;;;21.96;100.00;100545.47;5052411;28;20597;-71
2023/08/14 01:45:29;;;;;;;0.95;0.80;;;;;;;21.85;100.00;100531.59;5046359;28;20261;-71
2023/08/14 01:47:58;;;;;;;1.88;0.90;;;;;;;21.45;100.00;100472.72;5052199;28;20231;-71
2023/08/14 01:50:28;;;;;;;0.80;0.80;;;;;;;21.80;100.00;100543.16;5052229;28;20200;-71
2023/08/14 01:52:55;;;;;;;2.58;1.00;;;;;;;21.41;100.00;100481.59;5051715;28;20288;-71
2023/08/14 01:55:24;;;;;;;0.70;0.70;;;;;;;21.79;100.00;100547.59;5051588;28;20234;-71
2023/08/14 01:57:51;;;;;;;0.95;0.80;;;;;;;21.75;100.00;100548.56;5051793;28;20210;-71
2023/08/14 02:00:19;;;;;;;1.42;0.80;;;;;;;21.77;100.00;100544.09;5051714;28;20736;-71
2023/08/14 02:02:46;;;;;;;1.10;0.80;;;;;;;21.65;100.00;100541.78;5051579;28;20207;-71
2023/08/14 02:05:13;;;;;;;1.75;0.80;;;;;;;21.72;100.00;100551.28;5051727;28;20233;-72
2023/08/14 02:10:41;;;;;;;1.65;1.08;;;;;;;21.88;100.00;100535.94;5167815;27;20549;-71
2023/08/14 02:13:08;;;;;;;2.17;1.02;;;;;;;21.81;100.00;100543.13;5109440;28;20194;-71
2023/08/14 02:15:35;;;;;;;0.98;0.77;;;;;;;21.33;100.00;100467.75;5073540;28;20198;-71
2023/08/14 02:18:01;;;;;;;0.90;0.90;;;;;;;21.72;100.00;100546.00;5088936;28;20221;-71
2023/08/14 02:20:28;;;;;;;0.95;0.80;;;;;;;21.74;100.00;100545.06;5098556;28;20221;-71
2023/08/14 02:22:55;;;;;;;3.40;1.25;;;;;;;21.68;100.00;100547.84;5108920;28;20209;-71
2023/08/14 02:25:21;;;;;;;0.70;0.70;;;;;;;21.50;100.00;100527.16;5109201;28;20205;-71
2023/08/14 02:27:50;;;;;;;2.58;0.90;;;;;;;21.62;100.00;100550.59;5109139;28;20204;-71
2023/08/14 02:30:16;;;;;;;1.25;1.20;;;;;;;21.45;100.00;100546.59;5072770;28;20688;-71
2023/08/14 02:32:43;;;;;;;2.10;0.98;;;;;;;21.43;100.00;100558.97;5109254;28;20201;-72
2023/08/14 02:35:10;;;;;;;0.70;0.70;;;;;;;21.15;100.00;100529.69;5108367;28;20194;-71
2023/08/14 02:37:37;;;;;;;1.55;0.93;;;;;;;21.19;100.00;100550.66;5108492;28;20201;-71
2023/08/14 02:40:04;;;;;;;0.80;0.80;;;;;;;21.05;100.00;100539.50;5108570;28;20209;-71
2023/08/14 02:42:31;;;;;;;0.85;0.82;;;;;;;20.98;100.00;100556.34;5108930;28;20194;-71
2023/08/14 02:44:59;;;;;;;0.88;0.82;;;;;;;21.01;100.00;100555.44;5108580;28;20200;-71
2023/08/14 02:47:26;;;;;;;3.15;1.00;;;;;;;20.83;100.00;100534.72;5090144;28;20193;-71
2023/08/14 02:49:53;;;;;;;1.15;1.00;;;;;;;20.83;100.00;100558.44;5108540;28;20566;-71
2023/08/14 02:52:19;;;;;;;0.70;0.70;;;;;;;20.73;100.00;100553.31;5109018;28;20198;-71
2023/08/14 02:54:46;;;;;;;1.73;1.00;;;;;;;20.68;100.00;100552.56;5108622;28;20220;-71
2023/08/14 02:57:13;;;;;;;0.80;0.80;;;;;;;20.52;100.00;100551.06;5108699;28;20201;-71
2023/08/14 02:59:40;;;;;;;0.80;0.80;;;;;;;20.67;100.00;100571.88;5108162;28;20776;-71
2023/08/14 03:02:08;;;;;;;1.10;1.00;;;;;;;20.77;100.00;100565.53;5108997;28;20239;-72
2023/08/14 03:04:35;;;;;;;1.27;0.80;;;;;;;20.71;100.00;100568.31;5108164;28;20220;-71
2023/08/14 03:07:02;;;;;;;0.80;0.80;;;;;;;20.68;100.00;100570.13;5108580;28;20198;-71
2023/08/14 03:09:29;;;;;;;0.73;0.73;;;;;;;20.70;100.00;100565.69;5108602;28;20240;-71
2023/08/14 03:11:55;;;;;;;0.70;0.70;;;;;;;20.26;100.00;100501.44;5108346;28;20202;-71
2023/08/14 03:14:22;;;;;;;0.82;0.80;;;;;;;20.73;100.00;100577.03;5108120;28;20217;-71
2023/08/14 03:16:49;;;;;;;2.20;1.00;;;;;;;20.57;100.00;100554.50;5106380;28;20209;-72
2023/08/14 03:19:17;;;;;;;0.70;0.70;;;;;;;20.80;100.00;100583.06;5108011;28;20225;-72
2023/08/14 03:21:44;;;;;;;1.35;0.88;;;;;;;20.74;100.00;100580.53;5095905;28;20201;-72
2023/08/14 03:24:11;;;;;;;0.70;0.70;;;;;;;20.75;100.00;100575.25;5093775;28;20202;-71
2023/08/14 03:26:38;;;;;;;0.70;0.70;;;;;;;20.69;100.00;100585.06;5093949;28;20623;-71
2023/08/14 03:29:05;;;;;;;0.70;0.70;;;;;;;20.62;100.00;100567.59;5074452;28;20203;-71
2023/08/14 03:31:33;;;;;;;0.75;0.75;;;;;;;20.69;100.00;100591.16;5094336;28;20212;-71
2023/08/14 03:34:00;;;;;;;0.80;0.80;;;;;;;20.68;100.00;100588.56;5093986;28;20635;-72
2023/08/14 03:36:28;;;;;;;0.90;0.77;;;;;;;20.76;100.00;100591.94;5093732;28;20198;-71
2023/08/14 03:38:55;;;;;;;1.10;0.80;;;;;;;20.65;100.00;100583.38;5094149;28;20198;-72
2023/08/14 03:41:22;;;;;;;0.82;0.73;;;;;;;20.72;100.00;100598.16;5094295;28;20190;-71
2023/08/14 03:43:48;;;;;;;2.38;0.82;;;;;;;20.70;100.00;100600.81;5104049;28;20205;-71
2023/08/14 03:46:15;;;;;;;1.33;1.33;;;;;;;20.66;100.00;100598.25;5105794;28;20194;-71
2023/08/14 03:48:42;;;;;;;2.65;1.05;;;;;;;20.60;100.00;100598.38;5101165;28;20206;-72
2023/08/14 03:51:09;;;;;;;0.70;0.70;;;;;;;20.73;100.00;100597.25;5088202;28;20202;-72
2023/08/14 03:53:37;;;;;;;2.78;1.05;;;;;;;21.04;100.00;100608.97;5043491;28;20647;-71
2023/08/14 03:56:04;;;;;;;1.17;0.80;;;;;;;21.41;100.00;100619.69;5096181;28;20194;-72
2023/08/14 03:58:31;;;;;;;1.05;0.80;;;;;;;21.69;100.00;100619.97;5075640;28;20204;-71
2023/08/14 04:00:58;;;;;;;1.45;0.80;;;;;;;22.07;100.00;100625.31;5093791;28;20226;-71
2023/08/14 04:03:25;;;;;;;0.75;0.75;;;;;;;22.28;99.12;100625.69;5042185;28;20212;-72
2023/08/14 04:05:57;;;;;;;2.83;1.00;;;;;;;22.66;94.52;100628.25;5074300;28;20198;-72
2023/08/14 04:08:24;;;;;;;0.88;0.88;;;;;;;22.90;91.56;100632.91;5093372;28;20233;-72
2023/08/14 04:10:56;;;;;;;4.50;1.08;;;;;;;23.10;89.42;100635.91;5093467;28;20213;-72
2023/08/14 04:13:23;;;;;;;0.73;0.73;;;;;;;23.30;88.04;100638.00;5093511;28;20194;-72
2023/08/14 04:15:50;;;;;;;2.78;1.05;;;;;;;23.64;85.46;100632.63;5093210;28;20206;-76
2023/08/14 04:18:17;;;;;;;0.98;0.80;;;;;;;24.02;83.88;100634.97;5093677;28;20194;-76
2023/08/14 04:20:44;;;;;;;2.38;0.98;;;;;;;24.33;80.04;100639.34;5093156;28;20230;-74
2023/08/14 04:23:10;;;;;;;1.77;0.77;;;;;;;24.19;80.10;100626.53;5093822;28;20190;-74
2023/08/14 04:25:37;;;;;;;1.33;0.80;;;;;;;24.24;80.46;100644.94;5093194;28;20802;-76
2023/08/14 04:28:06;;;;;;;0.65;0.57;;;;;;;24.54;78.55;100643.94;5093884;28;20198;-77
2023/08/14 04:30:33;;;;;;;2.28;0.95;;;;;;;24.71;77.35;100649.56;5093245;28;20213;-76
2023/08/14 04:33:00;;;;;;;0.60;0.60;;;;;;;25.03;75.11;100646.69;5092700;28;20198;-75
2023/08/14 04:35:27;;;;;;;0.80;0.75;;;;;;;25.27;72.58;100622.81;5092959;28;20186;-75
2023/08/14 04:37:53;;;;;;;3.03;1.08;;;;;;;25.79;70.00;100649.19;5093115;28;20197;-75
2023/08/14 04:40:20;;;;;;;0.70;0.70;;;;;;;26.16;68.50;100651.28;5093151;28;20230;-75
2023/08/14 04:42:47;;;;;;;0.82;0.82;;;;;;;26.50;67.42;100608.25;5092636;28;20653;-75
2023/08/14 04:45:15;;;;;;;0.88;0.80;;;;;;;27.48;63.38;100665.19;5092573;28;20208;-74
2023/08/14 04:47:42;;;;;;;1.27;0.77;;;;;;;27.55;61.36;100665.78;5092861;28;20194;-73
2023/08/14 04:50:09;;;;;;;0.68;0.68;;;;;;;27.78;58.72;100633.63;5093025;28;20255;-72
2023/08/14 04:52:36;;;;;;;2.45;0.77;;;;;;;27.99;57.43;100659.25;5092612;28;20197;-71
2023/08/14 04:55:03;;;;;;;0.60;0.60;;;;;;;28.20;56.97;100675.19;5092453;28;20186;-72
2023/08/14 04:57:29;;;;;;;2.85;0.82;;;;;;;28.67;55.43;100676.44;5092963;28;20213;-72
2023/08/14 04:59:56;;;;;;;1.27;0.73;;;;;;;28.69;54.05;100676.34;5092248;28;20232;-73
2023/08/14 05:02:24;;;;;;;1.10;0.68;;;;;;;28.65;54.03;100674.72;5092250;28;20206;-72
2023/08/14 05:04:51;;;;;;;1.00;0.90;;;;;;;28.74;54.20;100677.00;5092037;28;20206;-73
2023/08/14 05:07:18;;;;;;;0.95;0.75;;;;;;;28.58;53.81;100676.84;5091532;28;20588;-73
2023/08/14 05:09:48;;;;;;;7.20;1.17;;;;;;;28.56;53.85;100679.59;5091395;28;20719;-73
2023/08/14 05:12:15;;;;;;;2.28;1.00;;;;;;;28.61;54.24;100674.03;5087117;28;20288;-72
2023/08/14 05:14:41;;;;;;;2.50;1.00;;;;;;;28.06;55.27;100684.69;5091548;28;20202;-72
2023/08/14 05:17:08;;;;;;;0.70;0.55;;;;;;;28.70;56.30;100692.28;5092305;28;20201;-72
2023/08/14 05:19:37;;;;;;;3.30;0.90;;;;;;;28.75;54.65;100690.28;5091935;28;20225;-71
2023/08/14 05:22:03;;;;;;;0.50;0.50;;;;;;;28.73;54.05;100694.81;5091085;28;20193;-73
2023/08/14 05:24:30;;;;;;;3.97;1.17;;;;;;;29.15;53.70;100688.22;5085762;28;20204;-72
2023/08/14 05:26:57;;;;;;;4.65;1.98;;;;;;;29.59;52.36;100686.78;5071532;28;20664;-71
2023/08/14 05:29:24;;;;;;;3.15;0.90;;;;;;;29.73;52.01;100678.88;5056372;28;20714;-72
2023/08/14 05:31:50;;;;;;;0.50;0.50;;;;;;;29.79;52.07;100702.59;5072907;28;20209;-75
2023/08/14 05:34:17;;;;;;;5.85;1.17;;;;;;;29.31;52.10;100654.44;5091198;28;20641;-73
2023/08/14 05:36:45;;;;;;;3.13;1.00;;;;;;;29.27;54.09;100709.00;5091645;28;20660;-73
2023/08/14 05:39:12;;;;;;;4.22;0.95;;;;;;;28.65;54.56;100702.28;5091407;28;20201;-73
2023/08/14 05:41:39;;;;;;;4.18;1.00;;;;;;;28.18;56.24;100706.44;5091389;28;20229;-73
2023/08/14 05:44:07;;;;;;;0.70;0.70;;;;;;;27.42;58.84;100692.09;5091207;28;20216;-72
2023/08/14 05:46:33;;;;;;;2.13;0.88;;;;;;;26.54;63.52;100705.63;5091516;28;20206;-72
2023/08/14 05:49:00;;;;;;;3.50;1.00;;;;;;;26.30;63.97;100695.97;5091387;28;20267;-73
2023/08/14 05:51:27;;;;;;;5.80;1.48;;;;;;;26.20;66.40;100678.63;5091352;28;20209;-71
2023/08/14 05:53:55;;;;;;;1.75;0.90;;;;;;;25.84;68.10;100708.34;5091180;28;20213;-71
2023/08/14 05:56:22;;;;;;;0.73;0.73;;;;;;;25.35;71.49;100687.13;5084911;28;20673;-74
2023/08/14 05:58:49;;;;;;;0.77;0.70;;;;;;;25.25;74.02;100688.41;5072364;28;20198;-71
2023/08/14 06:01:15;;;;;;;3.40;1.08;;;;;;;24.82;76.99;100713.72;5055531;28;20225;-72
2023/08/14 06:03:42;;;;;;;1.92;1.00;;;;;;;24.09;79.45;100678.03;5091055;28;20691;-72
2023/08/14 06:06:09;;;;;;;3.85;1.10;;;;;;;23.90;83.57;100709.53;5072446;28;20680;-72
2023/08/14 06:08:36;;;;;;;2.40;1.50;;;;;;;23.67;85.95;100696.09;5091132;28;20317;-73
2023/08/14 06:11:04;;;;;;;2.28;1.00;;;;;;;23.83;88.94;100715.91;5083965;28;20603;-71
2023/08/14 06:13:31;;;;;;;3.33;0.95;;;;;;;23.92;88.25;100714.78;5091454;28;20240;-72
2023/08/14 06:15:58;;;;;;;1.48;0.88;;;;;;;24.05;91.21;100713.50;5089386;28;20240;-72
2023/08/14 06:18:25;;;;;;;1.85;0.98;;;;;;;24.03;89.29;100712.69;5091103;28;20207;-72
2023/08/14 06:20:52;;;;;;;0.75;0.75;;;;;;;23.80;90.80;100697.47;5091020;28;20614;-71
2023/08/14 06:23:18;;;;;;;2.95;1.55;;;;;;;23.89;93.06;100694.56;5091147;28;20236;-71
2023/08/14 06:25:45;;;;;;;4.97;1.23;;;;;;;24.09;92.45;100708.06;5091138;28;20217;-72
2023/08/14 06:28:13;;;;;;;0.77;0.77;;;;;;;24.38;92.81;100707.19;5090925;28;20210;-73
2023/08/14 06:30:40;;;;;;;0.70;0.70;;;;;;;24.40;90.75;100715.97;5091044;28;20206;-72
2023/08/14 06:33:07;;;;;;;0.60;0.60;;;;;;;24.48;91.08;100710.41;5056141;28;20202;-73
2023/08/14 06:35:34;;;;;;;1.25;0.85;;;;;;;24.55;91.18;100730.53;5091373;28;20217;-71
2023/08/14 06:38:01;;;;;;;2.60;1.15;;;;;;;24.74;90.59;100715.75;5091204;28;20210;-72
2023/08/14 06:40:28;;;;;;;0.88;0.60;;;;;;;24.96;90.55;100724.78;5090880;28;20222;-71
2023/08/14 06:42:54;;;;;;;0.80;0.80;;;;;;;24.69;91.12;100722.97;5091304;28;20207;-71
2023/08/14 06:45:22;;;;;;;0.70;0.70;;;;;;;25.06;92.16;100727.97;5090910;28;20255;-72
2023/08/14 06:47:49;;;;;;;0.75;0.75;;;;;;;24.98;89.14;100730.88;5088844;28;20202;-71
2023/08/14 06:50:16;;;;;;;0.60;0.60;;;;;;;24.93;91.85;100730.19;5083633;28;20213;-71
2023/08/14 06:52:43;;;;;;;1.75;0.80;;;;;;;24.98;91.77;100736.19;5091182;28;20656;-72
2023/08/14 06:55:10;;;;;;;1.05;0.85;;;;;;;25.22;91.21;100738.94;5055706;28;20202;-72
2023/08/14 06:57:37;;;;;;;0.75;0.75;;;;;;;25.13;90.50;100735.69;5094732;28;20202;-71
2023/08/14 07:00:06;;;;;;;0.93;0.70;;;;;;;25.24;91.50;100739.75;5094828;28;20222;-71
2023/08/14 07:02:35;;;;;;;0.57;0.57;;;;;;;25.33;89.73;100723.50;5094992;28;20279;-72
2023/08/14 07:05:01;;;;;;;1.50;0.70;;;;;;;25.61;90.49;100740.22;5094603;28;20205;-72
2023/08/14 07:07:28;;;;;;;1.45;0.80;;;;;;;25.80;91.92;100730.63;5094646;28;20194;-71
2023/08/14 07:09:56;;;;;;;3.60;2.55;;;;;;;25.73;87.70;100720.28;5094849;28;20230;-72
2023/08/14 07:12:23;;;;;;;1.02;0.70;;;;;;;25.92;88.16;100732.84;5059126;28;20200;-71
2023/08/14 07:14:49;;;;;;;0.50;0.50;;;;;;;25.92;85.80;100731.97;5059198;28;20198;-72
2023/08/14 07:17:16;;;;;;;0.85;0.70;;;;;;;25.99;85.53;100736.13;5094647;28;20202;-72
2023/08/14 07:19:44;;;;;;;0.60;0.60;;;;;;;26.06;83.74;100732.31;5075843;28;20244;-71
2023/08/14 07:22:11;;;;;;;0.85;0.80;;;;;;;26.05;83.61;100727.91;5094518;28;20222;-71
2023/08/14 07:24:38;;;;;;;0.70;0.70;;;;;;;26.15;85.60;100726.63;5094395;28;20194;-73
2023/08/14 07:27:05;;;;;;;2.55;0.95;;;;;;;26.42;83.71;100716.75;5094308;28;20191;-71
2023/08/14 07:29:32;;;;;;;1.38;0.82;;;;;;;26.61;79.57;100726.56;5094382;28;20190;-71
2023/08/14 07:31:59;;;;;;;0.70;0.70;;;;;;;26.68;77.28;100729.88;5094140;28;20197;-72
2023/08/14 07:34:25;;;;;;;2.50;0.90;;;;;;;26.77;75.31;100726.81;5094027;28;20235;-71
2023/08/14 07:36:54;;;;;;;0.90;0.90;;;;;;;26.75;75.50;100718.06;5094335;28;20209;-73
2023/08/14 07:39:20;;;;;;;2.45;0.95;;;;;;;26.87;74.73;100728.22;5094321;28;20198;-74
2023/08/14 07:41:47;;;;;;;0.60;0.60;;;;;;;27.02;72.68;100727.56;5094027;28;20253;-73
2023/08/14 07:44:14;;;;;;;1.17;0.70;;;;;;;27.06;72.22;100718.53;5094104;28;20214;-73
2023/08/14 07:46:41;;;;;;;0.65;0.65;;;;;;;27.13;72.59;100720.91;5058829;28;20194;-72
2023/08/14 07:49:07;;;;;;;3.13;1.02;;;;;;;27.06;70.17;100721.19;5094264;28;20198;-72
2023/08/14 07:51:34;;;;;;;2.35;0.82;;;;;;;27.21;71.86;100710.81;5094142;28;20198;-71
2023/08/14 07:54:02;;;;;;;1.13;1.08;;;;;;;27.29;67.81;100719.34;5094301;28;20198;-73
2023/08/14 07:56:29;;;;;;;0.82;0.80;;;;;;;27.37;66.44;100710.06;5093902;28;20206;-72
2023/08/14 07:58:56;;;;;;;1.00;0.90;;;;;;;27.36;67.25;100718.13;5075260;28;20683;-72
2023/08/14 08:01:23;;;;;;;0.95;0.60;;;;;;;27.21;63.91;100713.47;5058254;28;20225;-73
2023/08/14 08:03:49;;;;;;;0.75;0.75;;;;;;;27.20;63.72;100685.09;5093991;28;20198;-73
2023/08/14 08:06:16;;;;;;;2.60;1.05;;;;;;;27.62;64.95;100712.53;5093591;28;20205;-73
2023/08/14 08:08:43;;;;;;;0.70;0.70;;;;;;;26.92;64.47;100638.38;5093420;28;20229;-74
2023/08/14 08:11:11;;;;;;;3.45;1.00;;;;;;;27.65;65.57;100715.06;5093472;28;20209;-73
2023/08/14 08:13:38;;;;;;;0.70;0.70;;;;;;;27.76;62.05;100712.78;5093497;28;20202;-72
2023/08/14 08:16:05;;;;;;;5.90;2.15;;;;;;;27.89;64.31;100711.28;5093522;28;20285;-73
2023/08/14 08:18:32;;;;;;;0.70;0.70;;;;;;;27.77;58.77;100677.19;5093561;28;20210;-74
2023/08/14 08:20:58;;;;;;;3.03;0.95;;;;;;;27.90;59.48;100693.47;5093296;28;20230;-74
2023/08/14 08:23:25;;;;;;;3.85;1.10;;;;;;;27.90;62.02;100710.34;5091162;28;20201;-74
2023/08/14 08:25:52;;;;;;;1.20;0.68;;;;;;;28.05;64.21;100703.41;5092960;28;20198;-73
2023/08/14 08:28:20;;;;;;;1.27;0.60;;;;;;;28.23;61.21;100699.06;5093015;28;20721;-74
2023/08/14 08:30:47;;;;;;;0.63;0.63;;;;;;;28.23;61.46;100701.72;5093043;28;20202;-71
2023/08/14 08:33:14;;;;;;;1.27;0.88;;;;;;;27.98;60.92;100683.31;5093168;28;20198;-72
2023/08/14 08:35:40;;;;;;;0.70;0.70;;;;;;;28.20;58.54;100699.19;5093116;28;20202;-73
2023/08/14 08:38:07;;;;;;;6.10;1.30;;;;;;;28.36;58.16;100703.72;5092988;28;20206;-73
2023/08/14 08:40:35;;;;;;;2.83;1.08;;;;;;;28.31;56.30;100696.88;5093007;28;20205;-71
2023/08/14 08:43:02;;;;;;;0.70;0.70;;;;;;;28.52;55.75;100696.72;5093273;28;20202;-71
2023/08/14 08:45:32;;;;;;;2.72;0.90;;;;;;;28.44;54.99;100672.19;5093436;28;20707;-72
2023/08/14 08:48:01;;;;;;;0.50;0.50;;;;;;;28.38;53.76;100676.97;5098229;28;20194;-72
2023/08/14 08:50:29;;;;;;;2.38;0.93;;;;;;;28.53;55.23;100692.25;5097505;28;20292;-69
2023/08/14 08:52:56;;;;;;;3.20;1.15;;;;;;;28.24;53.12;100658.09;5099673;28;20191;-71
2023/08/14 08:55:23;;;;;;;1.45;0.80;;;;;;;28.70;53.82;100684.28;5097495;28;20202;-72
2023/08/14 08:57:52;;;;;;;0.60;0.60;;;;;;;28.93;52.19;100683.97;5094263;28;20213;-71
2023/08/14 09:00:20;;;;;;;0.80;0.80;;;;;;;28.89;52.16;100677.09;5092426;28;20191;-71
2023/08/14 09:02:48;;;;;;;0.80;0.80;;;;;;;28.94;51.42;100679.50;5051123;28;20561;-72
2023/08/14 09:05:15;;;;;;;1.98;0.85;;;;;;;28.97;52.30;100679.34;5087293;28;20198;-69
2023/08/14 09:07:43;;;;;;;1.25;0.70;;;;;;;29.03;50.66;100669.22;5092468;28;20629;-71
2023/08/14 09:10:10;;;;;;;2.70;0.82;;;;;;;29.26;50.94;100680.50;5090729;28;20335;-71
2023/08/14 09:12:37;;;;;;;3.92;1.23;;;;;;;29.07;49.09;100680.63;5092698;28;20254;-72
2023/08/14 09:15:06;;;;;;;0.60;0.60;;;;;;;29.25;50.17;100676.13;5092358;28;20607;-70
2023/08/14 09:17:33;;;;;;;1.00;0.77;;;;;;;29.36;48.61;100671.13;5073760;28;20202;-71
2023/08/14 09:20:02;;;;;;;0.70;0.70;;;;;;;29.52;48.92;100678.22;5091831;28;20266;-70
2023/08/14 09:22:30;;;;;;;1.85;0.95;;;;;;;29.45;48.99;100670.63;5091973;28;20287;-71
2023/08/14 09:24:57;;;;;;;1.00;1.00;;;;;;;29.47;49.79;100661.56;5088797;28;20672;-70
2023/08/14 09:27:27;;;;;;;1.75;0.80;;;;;;;29.56;47.43;100654.88;5082667;28;20608;-71
2023/08/14 09:29:56;;;;;;;0.57;0.57;;;;;;;29.37;47.93;100635.41;5080115;28;20249;-71
2023/08/14 09:32:24;;;;;;;1.08;0.80;;;;;;;29.40;46.48;100656.63;5082709;28;20213;-73
2023/08/14 09:34:58;;;;;;;0.70;0.70;;;;;;;29.25;48.33;100631.53;5091685;28;20580;-71
2023/08/14 09:37:27;;;;;;;0.65;0.65;;;;;;;29.35;49.53;100653.34;5089593;28;20198;-72
2023/08/14 09:40:09;;;;;;;0.55;0.55;;;;;;;29.64;47.84;100655.31;5091762;28;20311;-71
2023/08/14 09:42:36;;;;;;;0.77;0.77;;;;;;;29.65;46.97;100630.28;5091521;28;20213;-71
2023/08/14 09:45:03;;;;;;;0.70;0.70;;;;;;;29.91;48.20;100650.28;5091576;28;20189;-70
2023/08/14 09:47:31;;;;;;;0.85;0.77;;;;;;;29.76;47.64;100640.38;5091445;28;20193;-73
2023/08/14 09:49:59;;;;;;;0.77;0.77;;;;;;;29.63;48.12;100642.03;5091774;28;20654;-74
2023/08/14 09:52:27;;;;;;;0.85;0.70;;;;;;;29.75;47.80;100636.84;5091652;28;20198;-72
2023/08/14 09:54:54;;;;;;;0.68;0.68;;;;;;;29.81;47.46;100633.84;5091501;28;20636;-72
2023/08/14 09:57:23;;;;;;;2.88;0.95;;;;;;;30.23;47.56;100633.28;5091349;28;20221;-71
2023/08/14 09:59:50;;;;;;;3.53;1.08;;;;;;;30.15;48.33;100635.50;5090336;28;20198;-72
2023/08/14 10:02:18;;;;;;;1.27;0.80;;;;;;;30.14;47.58;100635.63;5078769;28;20241;-71
2023/08/14 10:04:47;;;;;;;2.30;0.77;;;;;;;30.10;46.30;100618.00;5072050;28;20538;-72
2023/08/14 10:07:18;;;;;;;0.70;0.70;;;;;;;30.12;47.91;100626.78;5071311;28;20692;-72
2023/08/14 10:09:51;;;;;;;1.45;0.70;;;;;;;30.15;48.08;100613.25;5071288;28;20246;-72
2023/08/14 10:12:22;;;;;;;0.68;0.68;;;;;;;30.30;48.24;100623.06;5071217;28;20286;-72
2023/08/14 10:14:54;;;;;;;1.20;0.80;;;;;;;30.20;46.25;100628.09;5036259;28;20558;-71
2023/08/14 10:17:28;;;;;;;0.70;0.70;;;;;;;30.25;46.75;100609.13;5071705;28;20259;-72
2023/08/14 10:19:57;;;;;;;1.63;0.95;;;;;;;30.58;46.40;100617.00;5071613;28;20254;-72
2023/08/14 10:22:25;;;;;;;2.40;0.95;;;;;;;30.64;46.52;100609.50;5071534;28;20231;-72
2023/08/14 10:24:55;;;;;;;1.08;0.80;;;;;;;30.95;46.02;100609.34;5071470;28;20206;-72
2023/08/14 10:27:22;;;;;;;1.65;0.73;;;;;;;31.00;44.96;100618.97;5071339;28;20208;-72
2023/08/14 10:29:49;;;;;;;3.13;0.93;;;;;;;31.46;45.02;100617.84;5071603;28;20202;-71
2023/08/14 10:32:17;;;;;;;1.65;1.45;;;;;;;31.24;45.06;100596.88;5074901;28;20205;-72
2023/08/14 10:34:44;;;;;;;1.27;0.60;;;;;;;30.87;45.72;100592.88;5075318;28;20205;-73
2023/08/14 10:37:25;;;;;;;1.10;0.80;;;;;;;31.08;45.54;100606.81;5075410;28;20202;-72
2023/08/14 10:39:57;;;;;;;2.83;1.02;;;;;;;31.04;45.07;100599.06;5075124;28;20209;-72
2023/08/14 10:42:24;;;;;;;0.80;0.80;;;;;;;30.75;45.84;100604.31;5075179;28;20258;-72
2023/08/14 10:44:51;;;;;;;0.82;0.60;;;;;;;30.93;46.03;100602.34;5075281;28;20198;-73
2023/08/14 10:47:19;;;;;;;1.77;1.58;;;;;;;30.95;44.47;100601.31;5075301;28;20194;-73
2023/08/14 10:49:46;;;;;;;2.33;0.90;;;;;;;30.88;46.56;100596.44;5074972;28;20198;-72
2023/08/14 10:52:15;;;;;;;0.60;0.60;;;;;;;30.54;46.17;100525.28;5074597;28;20209;-71
2023/08/14 10:54:42;;;;;;;3.72;0.95;;;;;;;31.16;45.57;100598.31;5074683;28;20209;-70
2023/08/14 10:57:12;;;;;;;2.50;0.95;;;;;;;30.96;44.53;100597.66;5075004;28;20193;-72
2023/08/14 10:59:41;;;;;;;0.90;0.80;;;;;;;31.34;44.65;100586.44;5074752;28;20230;-72
2023/08/14 11:02:14;;;;;;;5.25;1.05;;;;;;;31.58;45.17;100590.28;5074599;28;20308;-72
2023/08/14 11:04:58;;;;;;;1.23;0.80;;;;;;;31.53;45.03;100581.69;5074683;28;20202;-72
2023/08/14 11:07:28;;;;;;;1.40;0.70;;;;;;;31.45;43.92;100578.59;5074642;28;20256;-71
2023/08/14 11:09:56;;;;;;;2.05;0.98;;;;;;;31.46;44.21;100591.03;5074467;28;20672;-72
2023/08/14 11:12:26;;;;;;;0.68;0.68;;;;;;;31.39;44.96;100581.66;5074674;28;20194;-72
2023/08/14 11:14:55;;;;;;;0.88;0.73;;;;;;;31.54;44.24;100578.00;5074402;28;20601;-73
2023/08/14 11:17:24;;;;;;;1.38;1.30;;;;;;;31.74;43.63;100582.97;5074424;28;20264;-72
2023/08/14 11:19:50;;;;;;;1.27;0.80;;;;;;;31.68;42.94;100574.47;5074465;28;20202;-74
2023/08/14 11:22:20;;;;;;;0.65;0.65;;;;;;;31.73;43.33;100556.25;5074321;28;20221;-73
2023/08/14 11:24:47;;;;;;;0.85;0.70;;;;;;;31.87;42.60;100566.94;5074584;28;20215;-72
2023/08/14 11:27:14;;;;;;;0.70;0.70;;;;;;;31.81;42.61;100549.44;5074290;28;20201;-73